Soaring Guidance
Issued by NWS Reno, NV

Home | Current Version | Previous Version | Text Only | Print | Product List | Glossary On
Versions: 1 2 3 4 5 6 7 8 9 10 11 12 13 14 15 16 17
000
UXUS97 KREV 241414
SRGREV

SOARING FORECAST
NATIONAL WEATHER SERVICE - RENO NV
700 AM PDT SUN MAY 24 2015

THIS SOARING FORECAST IS FOR THE EASTERN SIERRA AND WESTERN NEVADA
WITH SPECIFIC INDICES FOR THE GREATER RENO AREA.

THIS FORECAST IS PREPARED DAILY BY 700 AM AND IS NOT UPDATED.

FOR CURRENT FLIGHT CONDITIONS...FORECASTS...AND ADVISORIES...ACCESS
YOUR LOCAL BRIEFING OUTLET OR FLIGHT SERVICE STATION.

*******************************************************************
LOCAL INDICES FOR RENO:                   TODAY     YESTERDAY
MAXIMUM TEMPERATURE AT RENO...(DEG F)...     73          63
TRIGGER TEMPERATURE...........(DEG F)...     61          54
   EXCEEDED YESTERDAY BY 755 AM PDT
MAXIMUM ALTITUDE..............(FT MSL)..  14900       14200
SOARING INDEX.................(FPM).....    851         788
FORECASTED K-INDEX.........VALID 18Z....     30          28
FORECASTED K-INDEX.........VALID 00Z....     33          31
FORECASTED LIFTED INDEX....VALID 18Z....      0           0
FORECASTED LIFTED INDEX....VALID 00Z....     -1          -1

AFTERNOON WINDS ALOFT FORECAST
MSL (FT) WIND/TEMP
9000  3209/+07
10000 3211/+03
12000 3311/-01
14000 3215/-07
16000 3319/-11
18000 3322/-12
24000 3427/-26
30000 3538/-44
34000 3541/-54
39000 3342/-60

SLIDE MOUNTAIN DATA:
SLD HR 1320 M 34/34/06012KT /SLIDE MTN UNOFFICIAL OBSERVATION

RENO TAF FORECAST:
KRNO 241132Z 2412/2512 VRB03KT P6SM SCT050 BKN080
     FM241900 34008KT P6SM SCT050 BKN090 BKN120
     FM242200 33009G16KT P6SM SCT050 BKN080
     FM250400 VRB04KT P6SM SCT045 SCT080 SCT120

CARSON CITY TAF FORECAST:
KCXP 241132Z 2412/2512 VRB03KT P6SM SCT050 BKN080
     FM241900 34009KT P6SM SCT050 BKN080
     FM242200 32009G15KT P6SM SCT040 BKN080
     FM250300 VRB04KT P6SM SCT040 SCT080 SCT120

OUTLOOK FOR THE RENO-CARSON CITY-MINDEN AREA:
.MEMORIAL DAY...PARTLY CLOUDY IN THE MORNING THEN BECOMING MOSTLY
CLOUDY. PATCHY FOG IN THE MORNING. SCATTERED THUNDERSTORMS IN THE
AFTERNOON. HIGHS 74 TO 79. WEST WINDS AROUND 10 MPH.

SUNRISE AND SUNSET
MAY 24 2015...........SUNRISE   538 AM PDT   SUNSET   814 PM PDT
MAY 25 2015...........SUNRISE   538 AM PDT   SUNSET   815 PM PDT


USA.gov is the U.S. government's official web portal to all federal, state and local government web resources and services.